Time;durP1;ratioP1;P1;durP2;ratioP2;P2;SDS_P1;SDS_P2;PMS_P1;PMS_P2;Temp;Humidity;BMP_temperature;BMP_pressure;BME280_temperature;BME280_humidity;BME280_pressure;Samples;Min_cycle;Max_cycle;Signal;HPM_P1;HPM_P2
2021/06/01 00:02:12;;;;;;;7.10;3.50;;;17.00;65.80;;;;;;10526416;28;20715;-23
2021/06/01 00:07:34;;;;;;;4.17;3.57;;;17.00;66.30;;;;;;10493785;28;20560;-23
2021/06/01 00:12:56;;;;;;;4.37;3.10;;;17.00;65.60;;;;;;10492759;28;20615;-23
2021/06/01 00:18:18;;;;;;;4.70;3.53;;;17.00;65.70;;;;;;10530076;28;20228;-23
2021/06/01 00:23:40;;;;;;;3.80;3.40;;;17.00;65.70;;;;;;10544178;28;20200;-23
2021/06/01 00:29:03;;;;;;;4.30;3.67;;;17.00;65.70;;;;;;10577931;28;20567;-23
2021/06/01 00:34:25;;;;;;;4.17;3.77;;;17.00;65.60;;;;;;10576771;28;20188;-25
2021/06/01 00:39:46;;;;;;;4.93;3.73;;;17.00;65.60;;;;;;10575976;28;20193;-24
2021/06/01 00:45:16;;;;;;;3.73;3.20;;;17.00;65.60;;;;;;10491210;28;20221;-23
2021/06/01 00:50:38;;;;;;;5.10;3.47;;;17.00;65.80;;;;;;10542467;28;20692;-25
2021/06/01 00:56:00;;;;;;;4.50;3.70;;;17.00;65.70;;;;;;10531477;28;20466;-23
2021/06/01 01:01:23;;;;;;;4.43;3.40;;;17.00;65.80;;;;;;10536717;28;20253;-23
2021/06/01 01:06:57;;;;;;;6.27;3.80;;;17.00;65.50;;;;;;10328820;28;20584;-23
2021/06/01 01:12:24;;;;;;;4.23;3.60;;;17.00;65.50;;;;;;10328665;28;20278;-23
2021/06/01 01:17:49;;;;;;;4.20;3.47;;;17.00;65.30;;;;;;10329134;28;20711;-23
2021/06/01 01:23:15;;;;;;;5.80;3.80;;;17.00;65.40;;;;;;10357384;28;20727;-23
2021/06/01 01:28:46;;;;;;;3.60;3.27;;;17.00;65.50;;;;;;10370340;28;20570;-23
2021/06/01 01:34:10;;;;;;;4.20;3.53;;;17.00;65.50;;;;;;10369201;28;20215;-24
2021/06/01 01:39:38;;;;;;;5.10;3.60;;;17.00;65.50;;;;;;10369553;28;20196;-23
2021/06/01 01:45:03;;;;;;;4.23;3.50;;;17.00;65.40;;;;;;10517199;28;20703;-24
2021/06/01 01:50:26;;;;;;;5.60;3.50;;;17.00;65.20;;;;;;10566347;28;20237;-22
2021/06/01 01:55:51;;;;;;;4.03;3.63;;;16.90;65.00;;;;;;10514944;28;20251;-22
2021/06/01 02:01:13;;;;;;;5.07;3.70;;;17.00;64.90;;;;;;10537405;28;20196;-22
2021/06/01 02:06:36;;;;;;;6.67;3.77;;;16.90;64.80;;;;;;10537309;28;20229;-22
2021/06/01 02:11:58;;;;;;;4.47;3.50;;;16.90;64.80;;;;;;10539181;28;20209;-23
2021/06/01 02:17:19;;;;;;;4.97;3.77;;;16.90;64.70;;;;;;10539349;28;20218;-22
2021/06/01 02:28:34;;;;;;;5.30;3.77;;;16.90;64.70;;;;;;10539535;28;20248;-23
2021/06/01 02:33:57;;;;;;;7.10;3.60;;;16.90;64.60;;;;;;10572470;28;20208;-23
2021/06/01 02:39:21;;;;;;;4.77;3.53;;;16.90;64.60;;;;;;10543443;28;20190;-23
2021/06/01 02:44:43;;;;;;;4.10;3.70;;;16.90;64.40;;;;;;10512160;28;20209;-23
2021/06/01 02:50:08;;;;;;;4.20;3.27;;;16.90;64.20;;;;;;10493210;28;20213;-23
2021/06/01 02:55:31;;;;;;;4.63;3.23;;;16.90;64.70;;;;;;10537820;28;20628;-23
2021/06/01 03:00:53;;;;;;;4.13;3.70;;;16.90;64.50;;;;;;10538500;28;20199;-23
2021/06/01 03:06:15;;;;;;;4.67;3.67;;;16.90;64.60;;;;;;10545007;28;20216;-25
2021/06/01 03:11:40;;;;;;;3.20;2.90;;;16.90;63.80;;;;;;10580118;28;20216;-23
2021/06/01 03:17:02;;;;;;;5.43;3.60;;;16.90;64.20;;;;;;10610687;22;20609;-25
2021/06/01 03:22:24;;;;;;;5.13;3.20;;;16.90;64.30;;;;;;10521366;28;20907;-25
2021/06/01 03:27:47;;;;;;;3.60;3.30;;;16.90;64.00;;;;;;10528550;28;20229;-25
2021/06/01 03:33:09;;;;;;;5.20;4.13;;;16.90;63.70;;;;;;10536198;28;20631;-25
2021/06/01 03:38:33;;;;;;;4.30;3.90;;;16.90;64.00;;;;;;10529280;28;20220;-26
2021/06/01 03:43:56;;;;;;;3.57;3.27;;;16.90;63.50;;;;;;10510211;28;20192;-25
2021/06/01 03:49:17;;;;;;;3.97;3.57;;;16.90;63.60;;;;;;10521313;28;20224;-25
2021/06/01 03:54:39;;;;;;;4.67;3.77;;;16.80;63.70;;;;;;10521487;28;20209;-25
2021/06/01 04:00:06;;;;;;;4.20;3.57;;;16.90;63.80;;;;;;10508674;28;20680;-25
2021/06/01 04:05:27;;;;;;;6.20;4.03;;;16.90;63.40;;;;;;10536175;28;20216;-25
2021/06/01 04:10:49;;;;;;;4.17;3.80;;;16.80;63.70;;;;;;10527558;28;20225;-27
2021/06/01 04:16:12;;;;;;;5.43;3.90;;;16.80;63.90;;;;;;10534650;28;20222;-27
2021/06/01 04:21:33;;;;;;;4.33;3.60;;;16.80;63.70;;;;;;10535364;28;20189;-25
2021/06/01 04:26:56;;;;;;;5.27;3.60;;;16.90;64.10;;;;;;10534883;28;20218;-25
2021/06/01 04:32:19;;;;;;;3.90;3.43;;;16.90;64.60;;;;;;10534810;28;20771;-26
2021/06/01 04:37:41;;;;;;;4.40;3.70;;;16.90;64.00;;;;;;10533090;28;20222;-25
2021/06/01 04:43:02;;;;;;;5.23;4.13;;;16.90;64.40;;;;;;10524119;28;20196;-25
2021/06/01 04:48:25;;;;;;;5.50;3.63;;;16.90;64.00;;;;;;10508094;28;20274;-23
2021/06/01 04:53:47;;;;;;;5.13;4.17;;;16.90;64.30;;;;;;10492166;28;20255;-24
2021/06/01 04:59:09;;;;;;;4.83;4.33;;;16.90;64.10;;;;;;10491159;28;20222;-25
2021/06/01 05:04:32;;;;;;;4.70;4.17;;;16.90;64.30;;;;;;10493222;28;20199;-24
2021/06/01 05:09:59;;;;;;;6.00;4.03;;;16.90;64.30;;;;;;10491857;28;20211;-25
2021/06/01 05:15:21;;;;;;;6.00;4.90;;;16.80;64.00;;;;;;10498244;28;20511;-23
2021/06/01 05:20:45;;;;;;;6.70;4.57;;;16.80;63.90;;;;;;10492922;28;20194;-23
2021/06/01 05:26:07;;;;;;;6.97;5.13;;;16.80;64.00;;;;;;10491385;28;20586;-23
2021/06/01 05:31:41;;;;;;;6.57;5.20;;;16.80;64.20;;;;;;10492494;28;20214;-26
2021/06/01 05:37:05;;;;;;;6.17;5.57;;;16.80;64.40;;;;;;10492436;28;20294;-25
2021/06/01 05:42:27;;;;;;;7.97;5.23;;;16.80;65.30;;;;;;10508153;28;20244;-24
2021/06/01 05:47:48;;;;;;;6.70;5.97;;;16.80;65.80;;;;;;10537549;28;20218;-26
2021/06/01 05:53:12;;;;;;;7.80;4.83;;;16.80;66.70;;;;;;10540295;28;20629;-26
2021/06/01 05:58:33;;;;;;;9.43;4.83;;;16.90;66.20;;;;;;10533118;28;20222;-25
2021/06/01 06:03:55;;;;;;;10.30;5.60;;;16.90;66.80;;;;;;10523548;28;20623;-23
2021/06/01 06:09:18;;;;;;;6.70;5.57;;;16.90;67.00;;;;;;10519566;28;20244;-24
2021/06/01 06:14:40;;;;;;;7.63;5.63;;;16.90;67.20;;;;;;10508166;28;20228;-27
2021/06/01 06:20:03;;;;;;;5.67;4.83;;;16.90;67.40;;;;;;10527518;28;20223;-24
2021/06/01 06:25:27;;;;;;;9.50;5.17;;;16.90;67.40;;;;;;10540336;28;20381;-25
2021/06/01 06:30:48;;;;;;;6.90;4.60;;;16.90;67.60;;;;;;10508551;28;20688;-24
2021/06/01 06:36:10;;;;;;;8.30;4.97;;;17.00;67.40;;;;;;10538705;28;20217;-23
2021/06/01 06:41:33;;;;;;;6.00;4.67;;;17.00;67.50;;;;;;10513763;28;20193;-22
2021/06/01 06:47:05;;;;;;;9.10;5.33;;;17.00;67.20;;;;;;10510459;28;20784;-25
2021/06/01 06:52:26;;;;;;;8.13;4.77;;;17.20;66.40;;;;;;10516931;28;20256;-25
2021/06/01 06:57:49;;;;;;;7.13;4.97;;;17.20;66.90;;;;;;10523258;28;20218;-27
2021/06/01 07:03:11;;;;;;;12.70;4.20;;;17.10;66.60;;;;;;10530722;28;20269;-24
2021/06/01 07:08:33;;;;;;;5.13;4.70;;;17.20;66.80;;;;;;10535317;28;20492;-25
2021/06/01 07:14:05;;;;;;;9.17;5.07;;;17.20;66.40;;;;;;10537175;28;20224;-23
2021/06/01 07:19:26;;;;;;;11.27;5.37;;;17.20;67.10;;;;;;10532075;28;20231;-25
2021/06/01 07:24:49;;;;;;;8.07;4.70;;;17.20;67.20;;;;;;10528934;28;20190;-24
2021/06/01 07:30:13;;;;;;;4.37;3.97;;;17.20;67.30;;;;;;10509746;28;20211;-23
2021/06/01 07:35:35;;;;;;;6.63;4.63;;;17.20;66.80;;;;;;10493291;28;20203;-24
2021/06/01 07:40:57;;;;;;;5.87;4.40;;;17.20;67.30;;;;;;10515960;28;20593;-26
2021/06/01 07:46:20;;;;;;;5.03;3.70;;;17.20;66.90;;;;;;10491736;28;20245;-23
2021/06/01 07:51:41;;;;;;;12.63;4.97;;;17.20;66.80;;;;;;10515686;28;20211;-23
2021/06/01 07:57:04;;;;;;;41.63;8.20;;;17.20;66.60;;;;;;10499918;28;20602;-23
2021/06/01 08:02:27;;;;;;;24.00;6.50;;;17.20;66.90;;;;;;10509635;28;20947;-22
2021/06/01 08:07:49;;;;;;;36.30;6.50;;;17.20;66.40;;;;;;10492855;28;20215;-23
2021/06/01 08:13:11;;;;;;;19.60;6.37;;;17.20;66.40;;;;;;10491896;28;20298;-24
2021/06/01 08:18:38;;;;;;;13.00;5.07;;;17.30;67.10;;;;;;10494935;28;20228;-24
2021/06/01 08:23:59;;;;;;;16.93;5.20;;;17.20;66.80;;;;;;10501952;28;20664;-23
2021/06/01 08:29:21;;;;;;;9.13;4.20;;;17.30;66.50;;;;;;10493351;28;20268;-24
2021/06/01 08:34:44;;;;;;;11.50;4.50;;;17.30;66.50;;;;;;10519698;28;20701;-23
2021/06/01 08:40:07;;;;;;;8.07;4.43;;;17.30;66.80;;;;;;10524379;28;20260;-24
2021/06/01 08:45:31;;;;;;;7.83;3.80;;;17.30;66.40;;;;;;10533595;28;20190;-28
2021/06/01 08:50:55;;;;;;;8.80;4.53;;;17.30;66.10;;;;;;10535054;28;20205;-23
2021/06/01 08:56:18;;;;;;;10.13;3.90;;;17.40;65.80;;;;;;10504835;28;20221;-26
2021/06/01 09:01:41;;;;;;;5.87;3.60;;;17.40;65.20;;;;;;10502857;28;20186;-24
2021/06/01 09:07:14;;;;;;;8.90;4.00;;;17.40;65.80;;;;;;10491926;28;20243;-24
2021/06/01 09:12:52;;;;;;;6.77;3.80;;;17.40;65.80;;;;;;10524556;28;20225;-25
2021/06/01 09:24:04;;;;;;;3.90;2.90;;;17.40;65.70;;;;;;10548357;28;20191;-23
2021/06/01 09:29:28;;;;;;;4.40;3.13;;;17.40;65.90;;;;;;10564892;28;20217;-25
2021/06/01 09:34:52;;;;;;;5.33;3.50;;;17.30;66.10;;;;;;10566215;28;20228;-22
2021/06/01 09:40:19;;;;;;;4.77;3.47;;;17.30;66.30;;;;;;10568417;28;20224;-22
2021/06/01 09:45:42;;;;;;;4.47;2.90;;;17.30;66.20;;;;;;10541032;28;20190;-22
2021/06/01 09:51:09;;;;;;;6.17;2.90;;;17.30;66.00;;;;;;10544422;27;20222;-23
2021/06/01 09:56:34;;;;;;;5.00;2.83;;;17.40;65.40;;;;;;10539559;28;20562;-23
2021/06/01 10:01:55;;;;;;;3.73;3.23;;;17.40;66.60;;;;;;10559475;27;20848;-22
2021/06/01 10:07:27;;;;;;;4.60;2.77;;;17.40;66.30;;;;;;10579380;28;20217;-22
2021/06/01 10:12:52;;;;;;;3.80;2.87;;;17.40;65.90;;;;;;10562900;28;20226;-22
2021/06/01 10:18:16;;;;;;;4.20;2.80;;;17.50;66.00;;;;;;10551740;28;20236;-24
2021/06/01 10:23:40;;;;;;;2.97;2.67;;;17.50;65.80;;;;;;10539124;28;20199;-23
2021/06/01 10:29:03;;;;;;;4.10;2.87;;;17.60;66.00;;;;;;10539967;28;20693;-22
2021/06/01 10:34:25;;;;;;;4.37;2.60;;;17.60;65.70;;;;;;10558554;28;20214;-23
2021/06/01 10:51:28;;;;;;;2.83;2.47;;;17.60;66.40;;;;;;10551131;28;20304;-23
2021/06/01 10:56:54;;;;;;;3.57;2.67;;;17.60;66.10;;;;;;10552157;27;20240;-23
2021/06/01 11:02:18;;;;;;;5.17;3.00;;;17.60;66.60;;;;;;10557630;27;20190;-22
2021/06/01 11:07:56;;;;;;;3.20;2.73;;;17.60;66.70;;;;;;10580035;28;20220;-22
2021/06/01 11:13:35;;;;;;;2.67;2.47;;;17.50;66.80;;;;;;10577491;28;20214;-23
2021/06/01 11:19:01;;;;;;;3.00;2.70;;;17.50;67.40;;;;;;10572256;28;20226;-22
2021/06/01 11:36:00;;;;;;;3.33;2.60;;;17.40;67.30;;;;;;10578446;28;20186;-22
2021/06/01 11:42:47;;;;;;;3.10;2.80;;;17.50;67.10;;;;;;10567182;28;20216;-22
2021/06/01 11:47:16;;;;;;;2.80;2.60;;;17.40;67.50;;;;;;10532066;28;20704;-22
2021/06/01 11:52:39;;;;;;;3.60;2.83;;;17.40;67.20;;;;;;10534347;28;20220;-24
2021/06/01 12:03:56;;;;;;;4.57;2.80;;;17.40;67.40;;;;;;10574067;28;20212;-22
2021/06/01 12:20:38;;;;;;;5.47;3.87;;;17.40;67.40;;;;;;10537267;28;20297;-22
2021/06/01 12:26:10;;;;;;;4.77;3.60;;;17.40;67.60;;;;;;10561037;28;20657;-21
2021/06/01 12:31:32;;;;;;;5.87;3.70;;;17.50;66.60;;;;;;10534250;28;20292;-22
2021/06/01 13:40:36;;;;;;;3.30;3.00;;;17.80;66.70;;;;;;10543706;28;20297;-22
2021/06/01 13:46:14;;;;;;;4.07;2.90;;;17.80;66.50;;;;;;10540681;28;20566;-23
2021/06/01 13:51:53;;;;;;;4.10;2.77;;;17.90;67.00;;;;;;10577911;28;20652;-25
2021/06/01 13:57:22;;;;;;;3.80;3.00;;;17.90;66.30;;;;;;10545394;28;20285;-23
2021/06/01 14:20:03;;;;;;;3.97;2.50;;;18.10;65.70;;;;;;10582003;28;20217;-22
2021/06/01 14:36:55;;;;;;;4.27;2.90;;;18.10;65.80;;;;;;10564188;28;20195;-23
2021/06/01 15:11:07;;;;;;;4.67;2.70;;;17.80;67.00;;;;;;10578137;28;20574;-22
2021/06/01 15:51:07;;;;;;;5.03;2.90;;;17.80;67.50;;;;;;10392893;28;20596;-29
2021/06/01 16:13:43;;;;;;;9.57;4.00;;;17.90;67.30;;;;;;10370646;28;20253;-22
2021/06/01 16:30:45;;;;;;;6.10;3.50;;;17.90;65.50;;;;;;10411046;28;20219;-23
2021/06/01 16:41:57;;;;;;;3.83;3.30;;;17.90;66.10;;;;;;10441088;28;20246;-30
2021/06/01 17:04:35;;;;;;;3.63;3.10;;;17.90;64.70;;;;;;10486742;28;20198;-25
2021/06/01 17:15:43;;;;;;;5.00;3.93;;;17.80;65.30;;;;;;10407347;28;20225;-26
2021/06/01 17:38:13;;;;;;;3.57;2.87;;;17.80;65.40;;;;;;10451435;28;20211;-25
2021/06/01 17:43:35;;;;;;;4.50;3.03;;;17.80;65.50;;;;;;10487294;28;20199;-27
2021/06/01 17:49:00;;;;;;;5.00;2.73;;;17.80;65.30;;;;;;10498149;28;20226;-26
2021/06/01 17:54:26;;;;;;;4.77;2.40;;;17.80;64.10;;;;;;10498143;28;20234;-23
2021/06/01 17:59:49;;;;;;;5.10;2.60;;;17.80;65.10;;;;;;10476896;28;20223;-25
2021/06/01 18:05:13;;;;;;;2.10;1.90;;;17.80;65.50;;;;;;10456361;28;20681;-26
2021/06/01 19:02:20;;;;;;;2.50;2.10;;;17.70;66.00;;;;;;10287561;28;20659;-23
2021/06/01 19:24:46;;;;;;;3.93;1.50;;;17.70;65.30;;;;;;10462113;28;20177;-24
2021/06/01 19:52:58;;;;;;;3.20;1.63;;;17.70;65.00;;;;;;10473964;28;20216;-27
2021/06/01 19:58:20;;;;;;;1.53;1.43;;;17.60;64.70;;;;;;10453504;28;20223;-24
2021/06/01 20:03:44;;;;;;;2.10;1.20;;;17.60;64.90;;;;;;10452998;28;20201;-25
2021/06/01 20:09:06;;;;;;;1.50;1.27;;;17.60;64.70;;;;;;10452395;28;20278;-27
2021/06/01 20:14:29;;;;;;;1.47;1.27;;;17.60;64.30;;;;;;10475873;28;20219;-31
2021/06/01 20:19:56;;;;;;;3.37;1.30;;;17.60;63.80;;;;;;10494776;28;20241;-28
2021/06/01 20:25:20;;;;;;;1.80;1.10;;;17.60;63.60;;;;;;10471422;28;20568;-25
2021/06/01 20:30:46;;;;;;;1.17;0.90;;;17.60;63.10;;;;;;10453525;28;20216;-25
2021/06/01 20:36:10;;;;;;;2.00;1.00;;;17.60;62.20;;;;;;10452355;28;20223;-29
2021/06/01 20:41:32;;;;;;;1.30;1.20;;;17.60;61.60;;;;;;10460717;28;20695;-24
2021/06/01 20:46:53;;;;;;;1.57;1.07;;;17.60;61.30;;;;;;10452075;28;20537;-24
2021/06/01 20:52:17;;;;;;;2.57;0.90;;;17.60;61.40;;;;;;10451014;28;20223;-25
2021/06/01 20:57:40;;;;;;;2.20;1.00;;;17.60;60.50;;;;;;10452598;28;20207;-29
2021/06/01 21:03:04;;;;;;;1.00;0.87;;;17.60;60.40;;;;;;10452953;28;20202;-25
2021/06/01 21:08:30;;;;;;;1.77;0.87;;;17.60;59.90;;;;;;10452447;28;20223;-25
2021/06/01 21:13:52;;;;;;;0.97;0.70;;;17.60;60.50;;;;;;10467387;28;20228;-27
2021/06/01 21:19:13;;;;;;;2.10;1.20;;;17.60;60.50;;;;;;10510996;22;20236;-23
2021/06/01 21:24:37;;;;;;;0.80;0.80;;;17.60;60.30;;;;;;10506810;28;20192;-23
2021/06/01 21:29:58;;;;;;;1.20;0.90;;;17.60;60.00;;;;;;10497611;28;20223;-23
2021/06/01 21:35:20;;;;;;;2.03;1.00;;;17.60;59.70;;;;;;10499956;28;20269;-23
2021/06/01 21:40:45;;;;;;;1.67;0.87;;;17.60;59.80;;;;;;10499763;28;20222;-23
2021/06/01 21:46:08;;;;;;;1.90;1.20;;;17.60;60.00;;;;;;10457810;28;20270;-23
2021/06/01 21:51:33;;;;;;;2.17;1.20;;;17.60;59.50;;;;;;10487945;28;20277;-23
2021/06/01 21:56:56;;;;;;;1.80;1.23;;;17.60;59.40;;;;;;10499613;28;20270;-23
2021/06/01 22:02:18;;;;;;;1.93;1.00;;;17.60;59.40;;;;;;10498092;28;20219;-23
2021/06/01 22:07:41;;;;;;;1.83;1.03;;;17.60;59.60;;;;;;10498767;28;20196;-23
2021/06/01 22:13:04;;;;;;;2.70;1.03;;;17.60;59.70;;;;;;10498827;28;20242;-23
2021/06/01 22:18:28;;;;;;;2.43;1.10;;;17.60;58.90;;;;;;10491727;28;20251;-23
2021/06/01 22:23:52;;;;;;;2.37;0.80;;;17.60;58.80;;;;;;10456425;28;20187;-23
2021/06/01 22:29:15;;;;;;;2.60;1.17;;;17.60;59.00;;;;;;10455688;28;21036;-23
2021/06/01 22:34:39;;;;;;;1.33;0.93;;;17.60;58.90;;;;;;10456771;28;20223;-23
2021/06/01 22:40:01;;;;;;;1.40;1.10;;;17.50;58.80;;;;;;10444424;28;20296;-24
2021/06/01 22:45:25;;;;;;;1.63;1.23;;;17.60;58.60;;;;;;10380452;28;20620;-23
2021/06/01 22:50:47;;;;;;;3.00;1.40;;;17.50;58.50;;;;;;10381451;28;20224;-23
2021/06/01 22:56:11;;;;;;;1.47;1.17;;;17.60;58.60;;;;;;10494664;28;20222;-23
2021/06/01 23:01:38;;;;;;;2.53;1.60;;;17.50;58.00;;;;;;10493403;28;20219;-24
2021/06/01 23:07:01;;;;;;;2.43;1.60;;;17.50;58.70;;;;;;10496577;28;20258;-23
2021/06/01 23:12:23;;;;;;;3.00;1.77;;;17.50;58.30;;;;;;10436018;28;20782;-23
2021/06/01 23:17:48;;;;;;;2.23;1.70;;;17.50;58.60;;;;;;10318473;28;20206;-23
2021/06/01 23:23:10;;;;;;;2.33;1.50;;;17.50;58.40;;;;;;10490867;28;20290;-25
2021/06/01 23:28:33;;;;;;;2.83;1.57;;;17.50;58.80;;;;;;10453995;28;20686;-23
2021/06/01 23:33:57;;;;;;;2.30;1.97;;;17.50;58.60;;;;;;10423255;28;20247;-23
2021/06/01 23:39:20;;;;;;;4.23;2.50;;;17.50;58.70;;;;;;10496060;28;20269;-23
2021/06/01 23:44:42;;;;;;;2.30;1.97;;;17.50;59.10;;;;;;10247504;28;20207;-23
2021/06/01 23:50:06;;;;;;;3.07;2.73;;;17.50;59.30;;;;;;10246159;28;20223;-24
2021/06/01 23:55:27;;;;;;;3.10;2.20;;;17.50;59.60;;;;;;10246155;28;20223;-23
